sensor_id;sensor_type;location;lat;lon;timestamp;pressure;altitude;pressure_sealevel;temperature;humidity
15884;BME280;8040;50.254;10.960;2023-04-26T00:00:19;98109.47;;;7.22;54.99
15884;BME280;8040;50.254;10.960;2023-04-26T00:02:45;98140.06;;;7.41;55.29
15884;BME280;8040;50.254;10.960;2023-04-26T00:05:10;98184.16;;;7.65;55.34
15884;BME280;8040;50.254;10.960;2023-04-26T00:07:45;98165.97;;;7.42;55.48
15884;BME280;8040;50.254;10.960;2023-04-26T00:10:10;98169.22;;;7.39;55.88
15884;BME280;8040;50.254;10.960;2023-04-26T00:12:36;98120.34;;;7.07;55.81
15884;BME280;8040;50.254;10.960;2023-04-26T00:15:02;98145.09;;;7.14;56.00
15884;BME280;8040;50.254;10.960;2023-04-26T00:17:28;98149.38;;;7.20;56.32
15884;BME280;8040;50.254;10.960;2023-04-26T00:19:53;98108.38;;;6.85;56.46
15884;BME280;8040;50.254;10.960;2023-04-26T00:22:22;98168.25;;;7.25;56.54
15884;BME280;8040;50.254;10.960;2023-04-26T00:24:47;98177.91;;;7.31;56.80
15884;BME280;8040;50.254;10.960;2023-04-26T00:27:12;98191.38;;;7.36;56.77
15884;BME280;8040;50.254;10.960;2023-04-26T00:29:38;98208.28;;;7.46;56.98
15884;BME280;8040;50.254;10.960;2023-04-26T00:32:03;98183.28;;;7.36;56.87
15884;BME280;8040;50.254;10.960;2023-04-26T00:34:33;98093.78;;;6.86;57.02
15884;BME280;8040;50.254;10.960;2023-04-26T00:36:59;98162.03;;;7.24;56.30
15884;BME280;8040;50.254;10.960;2023-04-26T00:39:24;98188.88;;;7.44;55.92
15884;BME280;8040;50.254;10.960;2023-04-26T00:41:50;98170.56;;;7.36;55.96
15884;BME280;8040;50.254;10.960;2023-04-26T00:44:16;98179.94;;;7.49;55.90
15884;BME280;8040;50.254;10.960;2023-04-26T00:46:42;98156.28;;;7.36;56.17
15884;BME280;8040;50.254;10.960;2023-04-26T00:49:07;98120.31;;;7.12;56.27
15884;BME280;8040;50.254;10.960;2023-04-26T00:51:34;98178.13;;;7.39;56.75
15884;BME280;8040;50.254;10.960;2023-04-26T00:54:00;98195.06;;;7.45;57.19
15884;BME280;8040;50.254;10.960;2023-04-26T00:56:26;98182.19;;;7.37;57.54
15884;BME280;8040;50.254;10.960;2023-04-26T00:58:51;98215.47;;;7.61;58.00
15884;BME280;8040;50.254;10.960;2023-04-26T01:01:17;98203.34;;;7.58;57.98
15884;BME280;8040;50.254;10.960;2023-04-26T01:03:45;98143.72;;;7.22;57.76
15884;BME280;8040;50.254;10.960;2023-04-26T01:06:12;98202.03;;;7.56;58.35
15884;BME280;8040;50.254;10.960;2023-04-26T01:08:37;98153.91;;;7.29;57.94
15884;BME280;8040;50.254;10.960;2023-04-26T01:11:03;98195.00;;;7.55;57.66
15884;BME280;8040;50.254;10.960;2023-04-26T01:13:31;98180.00;;;7.39;57.09
15884;BME280;8040;50.254;10.960;2023-04-26T01:15:57;98155.31;;;7.22;57.87
15884;BME280;8040;50.254;10.960;2023-04-26T01:18:23;98166.03;;;7.32;57.75
15884;BME280;8040;50.254;10.960;2023-04-26T01:20:49;98141.44;;;7.00;57.19
15884;BME280;8040;50.254;10.960;2023-04-26T01:23:17;98194.28;;;7.44;57.03
15884;BME280;8040;50.254;10.960;2023-04-26T01:25:42;98227.63;;;7.63;56.45
15884;BME280;8040;50.254;10.960;2023-04-26T01:28:08;98182.69;;;7.44;56.39
15884;BME280;8040;50.254;10.960;2023-04-26T01:30:33;98173.50;;;7.40;55.25
15884;BME280;8040;50.254;10.960;2023-04-26T01:33:04;98198.16;;;7.67;55.37
15884;BME280;8040;50.254;10.960;2023-04-26T01:35:29;98213.72;;;7.80;54.86
15884;BME280;8040;50.254;10.960;2023-04-26T01:37:55;98139.06;;;7.32;54.12
15884;BME280;8040;50.254;10.960;2023-04-26T01:40:20;98174.19;;;7.60;53.98
15884;BME280;8040;50.254;10.960;2023-04-26T01:42:46;98182.47;;;7.69;54.13
15884;BME280;8040;50.254;10.960;2023-04-26T01:45:11;98195.91;;;7.79;54.18
15884;BME280;8040;50.254;10.960;2023-04-26T01:47:37;98179.81;;;7.64;54.15
15884;BME280;8040;50.254;10.960;2023-04-26T01:50:02;98187.63;;;7.65;54.33
15884;BME280;8040;50.254;10.960;2023-04-26T01:52:28;98125.66;;;7.22;53.66
15884;BME280;8040;50.254;10.960;2023-04-26T01:54:53;98175.63;;;7.48;53.52
15884;BME280;8040;50.254;10.960;2023-04-26T01:57:19;98153.63;;;7.31;53.92
15884;BME280;8040;50.254;10.960;2023-04-26T01:59:45;98221.56;;;7.76;54.48
15884;BME280;8040;50.254;10.960;2023-04-26T02:02:10;98179.69;;;7.45;54.17
15884;BME280;8040;50.254;10.960;2023-04-26T02:04:36;98141.78;;;7.27;53.75
15884;BME280;8040;50.254;10.960;2023-04-26T02:07:01;98186.44;;;7.48;53.93
15884;BME280;8040;50.254;10.960;2023-04-26T02:09:26;98195.91;;;7.45;53.59
15884;BME280;8040;50.254;10.960;2023-04-26T02:11:52;98168.75;;;7.27;53.69
15884;BME280;8040;50.254;10.960;2023-04-26T02:14:17;98203.50;;;7.38;54.18
15884;BME280;8040;50.254;10.960;2023-04-26T02:16:43;98176.34;;;7.20;54.13
15884;BME280;8040;50.254;10.960;2023-04-26T02:19:09;98204.88;;;7.31;55.02
15884;BME280;8040;50.254;10.960;2023-04-26T02:21:54;98218.66;;;7.24;55.09
15884;BME280;8040;50.254;10.960;2023-04-26T02:24:21;98159.06;;;6.83;55.35
15884;BME280;8040;50.254;10.960;2023-04-26T02:26:47;98208.81;;;7.10;55.85
15884;BME280;8040;50.254;10.960;2023-04-26T02:29:13;98204.78;;;7.08;56.86
15884;BME280;8040;50.254;10.960;2023-04-26T02:31:38;98162.88;;;6.77;57.39
15884;BME280;8040;50.254;10.960;2023-04-26T02:34:04;98183.53;;;6.91;57.37
15884;BME280;8040;50.254;10.960;2023-04-26T02:36:30;98182.75;;;6.86;57.50
15884;BME280;8040;50.254;10.960;2023-04-26T02:38:57;98183.34;;;6.78;57.69
15884;BME280;8040;50.254;10.960;2023-04-26T02:41:23;98116.47;;;6.26;57.71
15884;BME280;8040;50.254;10.960;2023-04-26T02:43:49;98193.38;;;6.67;58.10
15884;BME280;8040;50.254;10.960;2023-04-26T02:46:14;98206.78;;;6.72;58.06
15884;BME280;8040;50.254;10.960;2023-04-26T02:48:40;98126.16;;;6.22;58.80
15884;BME280;8040;50.254;10.960;2023-04-26T02:51:05;98194.75;;;6.55;58.58
15884;BME280;8040;50.254;10.960;2023-04-26T02:53:31;98149.03;;;6.25;58.77
15884;BME280;8040;50.254;10.960;2023-04-26T02:55:57;98134.56;;;6.06;58.89
15884;BME280;8040;50.254;10.960;2023-04-26T02:58:22;98138.63;;;5.93;58.59
15884;BME280;8040;50.254;10.960;2023-04-26T03:00:48;98185.97;;;6.14;58.73
15884;BME280;8040;50.254;10.960;2023-04-26T03:03:14;98145.63;;;5.94;59.55
15884;BME280;8040;50.254;10.960;2023-04-26T03:05:39;98171.47;;;6.00;59.04
15884;BME280;8040;50.254;10.960;2023-04-26T03:08:06;98123.56;;;5.62;59.62
15884;BME280;8040;50.254;10.960;2023-04-26T03:10:32;98192.97;;;6.10;59.87
15884;BME280;8040;50.254;10.960;2023-04-26T03:12:57;98235.22;;;6.20;59.64
15884;BME280;8040;50.254;10.960;2023-04-26T03:15:23;98219.38;;;6.13;59.76
15884;BME280;8040;50.254;10.960;2023-04-26T03:17:48;98197.84;;;5.93;59.64
15884;BME280;8040;50.254;10.960;2023-04-26T03:20:14;98219.09;;;5.95;60.06
15884;BME280;8040;50.254;10.960;2023-04-26T03:22:39;98149.66;;;5.57;60.06
15884;BME280;8040;50.254;10.960;2023-04-26T03:25:07;98178.44;;;5.66;60.17
15884;BME280;8040;50.254;10.960;2023-04-26T03:27:33;98196.75;;;5.74;60.43
15884;BME280;8040;50.254;10.960;2023-04-26T03:29:58;98175.22;;;5.64;60.63
15884;BME280;8040;50.254;10.960;2023-04-26T03:32:24;98150.22;;;5.44;60.34
15884;BME280;8040;50.254;10.960;2023-04-26T03:34:50;98185.97;;;5.54;60.18
15884;BME280;8040;50.254;10.960;2023-04-26T03:40:56;98215.31;;;5.71;61.24
15884;BME280;8040;50.254;10.960;2023-04-26T03:43:22;98231.19;;;5.77;61.24
15884;BME280;8040;50.254;10.960;2023-04-26T03:45:48;98151.81;;;5.25;61.36
15884;BME280;8040;50.254;10.960;2023-04-26T03:48:14;98208.88;;;5.67;61.10
15884;BME280;8040;50.254;10.960;2023-04-26T03:50:41;98206.16;;;5.47;61.26
15884;BME280;8040;50.254;10.960;2023-04-26T03:53:06;98168.50;;;5.32;60.93
15884;BME280;8040;50.254;10.960;2023-04-26T03:55:32;98193.50;;;5.42;61.31
15884;BME280;8040;50.254;10.960;2023-04-26T03:57:57;98216.13;;;5.46;61.27
15884;BME280;8040;50.254;10.960;2023-04-26T04:00:23;98202.38;;;5.33;61.12
15884;BME280;8040;50.254;10.960;2023-04-26T04:02:48;98204.81;;;5.34;61.51
15884;BME280;8040;50.254;10.960;2023-04-26T04:05:14;98216.63;;;5.38;61.28
15884;BME280;8040;50.254;10.960;2023-04-26T04:07:39;98213.94;;;5.33;61.83
15884;BME280;8040;50.254;10.960;2023-04-26T04:10:05;98216.09;;;5.36;61.81
15884;BME280;8040;50.254;10.960;2023-04-26T04:12:31;98251.09;;;5.66;61.65
15884;BME280;8040;50.254;10.960;2023-04-26T04:14:56;98201.03;;;5.30;61.78
15884;BME280;8040;50.254;10.960;2023-04-26T04:17:22;98234.41;;;5.54;62.03
15884;BME280;8040;50.254;10.960;2023-04-26T04:19:47;98143.66;;;4.80;61.88
15884;BME280;8040;50.254;10.960;2023-04-26T04:22:13;98222.00;;;5.43;61.71
15884;BME280;8040;50.254;10.960;2023-04-26T04:24:38;98255.94;;;5.59;61.55
15884;BME280;8040;50.254;10.960;2023-04-26T04:27:06;98184.84;;;5.10;61.88
15884;BME280;8040;50.254;10.960;2023-04-26T04:29:32;98233.31;;;5.45;62.10
15884;BME280;8040;50.254;10.960;2023-04-26T04:31:57;98236.00;;;5.50;62.02
15884;BME280;8040;50.254;10.960;2023-04-26T04:34:23;98219.84;;;5.30;61.91
15884;BME280;8040;50.254;10.960;2023-04-26T04:36:49;98235.22;;;5.50;62.05
15884;BME280;8040;50.254;10.960;2023-04-26T04:39:15;98244.06;;;5.50;61.77
15884;BME280;8040;50.254;10.960;2023-04-26T04:41:42;98205.63;;;5.50;61.89
15884;BME280;8040;50.254;10.960;2023-04-26T04:44:14;98240.34;;;5.66;62.00
15884;BME280;8040;50.254;10.960;2023-04-26T04:46:41;98211.25;;;5.63;61.74
15884;BME280;8040;50.254;10.960;2023-04-26T04:49:07;98257.59;;;6.20;62.03
15884;BME280;8040;50.254;10.960;2023-04-26T04:51:34;98262.94;;;6.50;61.17
15884;BME280;8040;50.254;10.960;2023-04-26T04:54:08;98227.06;;;6.65;60.03
15884;BME280;8040;50.254;10.960;2023-04-26T04:56:34;98250.63;;;7.03;59.06
15884;BME280;8040;50.254;10.960;2023-04-26T04:58:59;98279.34;;;7.32;58.40
15884;BME280;8040;50.254;10.960;2023-04-26T05:01:24;98286.56;;;7.46;58.55
15884;BME280;8040;50.254;10.960;2023-04-26T05:03:50;98222.16;;;7.35;57.91
15884;BME280;8040;50.254;10.960;2023-04-26T05:06:16;98303.03;;;7.88;56.35
15884;BME280;8040;50.254;10.960;2023-04-26T05:08:41;98296.06;;;7.82;56.45
15884;BME280;8040;50.254;10.960;2023-04-26T05:11:07;98293.06;;;7.89;55.55
15884;BME280;8040;50.254;10.960;2023-04-26T05:13:32;98276.25;;;7.97;55.44
15884;BME280;8040;50.254;10.960;2023-04-26T05:15:58;98273.53;;;7.97;54.81
15884;BME280;8040;50.254;10.960;2023-04-26T05:18:23;98254.63;;;7.97;54.52
15884;BME280;8040;50.254;10.960;2023-04-26T05:20:49;98299.59;;;8.16;55.04
15884;BME280;8040;50.254;10.960;2023-04-26T05:23:15;98264.84;;;8.00;55.09
15884;BME280;8040;50.254;10.960;2023-04-26T05:25:40;98249.84;;;7.89;55.12
15884;BME280;8040;50.254;10.960;2023-04-26T05:28:06;98298.19;;;8.19;54.71
15884;BME280;8040;50.254;10.960;2023-04-26T05:30:37;98230.19;;;7.40;54.78
15884;BME280;8040;50.254;10.960;2023-04-26T05:33:02;98293.53;;;7.96;54.43
15884;BME280;8040;50.254;10.960;2023-04-26T05:35:28;98259.72;;;7.65;54.80
15884;BME280;8040;50.254;10.960;2023-04-26T05:37:54;98214.00;;;7.40;54.52
15884;BME280;8040;50.254;10.960;2023-04-26T05:40:19;98312.16;;;8.93;53.58
15884;BME280;8040;50.254;10.960;2023-04-26T05:42:45;98268.66;;;9.68;50.29
15884;BME280;8040;50.254;10.960;2023-04-26T05:45:11;98252.66;;;10.54;48.44
15884;BME280;8040;50.254;10.960;2023-04-26T05:47:36;98295.50;;;11.38;45.52
15884;BME280;8040;50.254;10.960;2023-04-26T05:50:02;98272.25;;;11.73;43.84
15884;BME280;8040;50.254;10.960;2023-04-26T05:52:28;98279.00;;;11.97;42.69
15884;BME280;8040;50.254;10.960;2023-04-26T05:54:53;98317.44;;;12.40;41.98
15884;BME280;8040;50.254;10.960;2023-04-26T05:57:18;98289.72;;;12.38;41.03
15884;BME280;8040;50.254;10.960;2023-04-26T05:59:44;98291.13;;;12.35;41.41
15884;BME280;8040;50.254;10.960;2023-04-26T06:02:10;98258.78;;;12.56;40.96
15884;BME280;8040;50.254;10.960;2023-04-26T06:04:36;98237.38;;;12.63;40.45
15884;BME280;8040;50.254;10.960;2023-04-26T06:07:01;98288.00;;;12.72;40.69
15884;BME280;8040;50.254;10.960;2023-04-26T06:09:29;98291.41;;;12.78;40.77
15884;BME280;8040;50.254;10.960;2023-04-26T06:11:55;98234.47;;;12.29;41.45
15884;BME280;8040;50.254;10.960;2023-04-26T06:14:21;98289.47;;;12.48;41.41
15884;BME280;8040;50.254;10.960;2023-04-26T06:16:46;98322.03;;;11.82;41.45
15884;BME280;8040;50.254;10.960;2023-04-26T06:19:12;98282.44;;;11.40;43.20
15884;BME280;8040;50.254;10.960;2023-04-26T06:21:37;98218.00;;;10.92;43.38
15884;BME280;8040;50.254;10.960;2023-04-26T06:24:03;98279.22;;;10.98;43.16
15884;BME280;8040;50.254;10.960;2023-04-26T06:26:28;98246.06;;;10.28;44.21
15884;BME280;8040;50.254;10.960;2023-04-26T06:28:55;98282.25;;;10.19;45.66
15884;BME280;8040;50.254;10.960;2023-04-26T06:31:21;98303.75;;;9.97;45.93
15884;BME280;8040;50.254;10.960;2023-04-26T06:33:47;98323.19;;;9.62;46.95
15884;BME280;8040;50.254;10.960;2023-04-26T06:36:13;98289.03;;;9.00;48.00
15884;BME280;8040;50.254;10.960;2023-04-26T06:38:38;98239.31;;;8.49;49.02
15884;BME280;8040;50.254;10.960;2023-04-26T06:41:12;98276.97;;;8.41;49.93
15884;BME280;8040;50.254;10.960;2023-04-26T06:43:37;98269.91;;;8.45;50.86
15884;BME280;8040;50.254;10.960;2023-04-26T06:46:03;98239.34;;;8.16;50.21
15884;BME280;8040;50.254;10.960;2023-04-26T06:48:29;98306.03;;;8.54;50.98
15884;BME280;8040;50.254;10.960;2023-04-26T06:50:54;98305.78;;;8.50;50.85
15884;BME280;8040;50.254;10.960;2023-04-26T06:53:20;98288.78;;;8.50;50.86
15884;BME280;8040;50.254;10.960;2023-04-26T06:55:46;98294.66;;;8.57;50.32
15884;BME280;8040;50.254;10.960;2023-04-26T06:58:11;98314.28;;;8.39;50.14
15884;BME280;8040;50.254;10.960;2023-04-26T07:00:37;98237.41;;;7.88;49.89
15884;BME280;8040;50.254;10.960;2023-04-26T07:03:02;98267.78;;;8.03;50.74
15884;BME280;8040;50.254;10.960;2023-04-26T07:05:27;98335.38;;;8.37;50.80
15884;BME280;8040;50.254;10.960;2023-04-26T07:07:53;98278.03;;;8.11;50.87
15884;BME280;8040;50.254;10.960;2023-04-26T07:10:19;98234.63;;;7.98;50.22
15884;BME280;8040;50.254;10.960;2023-04-26T07:12:45;98280.34;;;8.28;50.35
15884;BME280;8040;50.254;10.960;2023-04-26T07:15:11;98324.28;;;8.38;50.36
15884;BME280;8040;50.254;10.960;2023-04-26T07:17:36;98287.09;;;8.25;51.05
15884;BME280;8040;50.254;10.960;2023-04-26T07:20:02;98327.09;;;8.57;51.14
15884;BME280;8040;50.254;10.960;2023-04-26T07:22:28;98296.19;;;8.34;50.16
15884;BME280;8040;50.254;10.960;2023-04-26T07:24:54;98260.13;;;8.15;50.49
15884;BME280;8040;50.254;10.960;2023-04-26T07:27:19;98289.16;;;8.38;50.34
15884;BME280;8040;50.254;10.960;2023-04-26T07:29:45;98281.44;;;8.27;50.42
15884;BME280;8040;50.254;10.960;2023-04-26T07:32:10;98325.19;;;8.57;50.15
15884;BME280;8040;50.254;10.960;2023-04-26T07:34:36;98293.25;;;8.31;50.32
15884;BME280;8040;50.254;10.960;2023-04-26T07:37:02;98226.91;;;7.86;51.29
15884;BME280;8040;50.254;10.960;2023-04-26T07:39:27;98335.72;;;8.59;50.91
15884;BME280;8040;50.254;10.960;2023-04-26T07:41:54;98249.09;;;8.12;50.10
15884;BME280;8040;50.254;10.960;2023-04-26T07:44:19;98256.47;;;8.35;49.96
15884;BME280;8040;50.254;10.960;2023-04-26T07:46:45;98322.19;;;8.87;48.10
15884;BME280;8040;50.254;10.960;2023-04-26T07:49:10;98282.28;;;8.51;45.74
15884;BME280;8040;50.254;10.960;2023-04-26T07:51:36;98322.00;;;8.79;46.07
15884;BME280;8040;50.254;10.960;2023-04-26T07:54:01;98273.44;;;8.40;45.07
15884;BME280;8040;50.254;10.960;2023-04-26T07:56:27;98221.41;;;8.30;45.69
15884;BME280;8040;50.254;10.960;2023-04-26T07:58:52;98329.25;;;9.12;46.01
15884;BME280;8040;50.254;10.960;2023-04-26T08:01:25;98263.50;;;8.88;46.00
15884;BME280;8040;50.254;10.960;2023-04-26T08:03:51;98229.78;;;8.80;46.17
15884;BME280;8040;50.254;10.960;2023-04-26T08:06:16;98241.50;;;8.94;46.26
15884;BME280;8040;50.254;10.960;2023-04-26T08:08:43;98247.28;;;8.88;44.07
15884;BME280;8040;50.254;10.960;2023-04-26T08:11:13;98357.94;;;9.31;42.78
15884;BME280;8040;50.254;10.960;2023-04-26T08:13:38;98332.22;;;9.10;41.88
15884;BME280;8040;50.254;10.960;2023-04-26T08:16:04;98333.69;;;8.98;41.31
15884;BME280;8040;50.254;10.960;2023-04-26T08:18:30;98344.88;;;8.91;40.19
15884;BME280;8040;50.254;10.960;2023-04-26T08:20:55;98288.44;;;8.56;42.05
15884;BME280;8040;50.254;10.960;2023-04-26T08:23:21;98353.00;;;9.15;44.92
15884;BME280;8040;50.254;10.960;2023-04-26T08:25:47;98286.75;;;8.89;45.56
15884;BME280;8040;50.254;10.960;2023-04-26T08:28:14;98353.09;;;9.52;45.47
15884;BME280;8040;50.254;10.960;2023-04-26T08:30:40;98350.94;;;9.72;45.29
15884;BME280;8040;50.254;10.960;2023-04-26T08:33:06;98280.50;;;9.35;44.69
15884;BME280;8040;50.254;10.960;2023-04-26T08:35:31;98279.78;;;9.48;43.21
15884;BME280;8040;50.254;10.960;2023-04-26T08:37:57;98347.38;;;9.95;42.13
15884;BME280;8040;50.254;10.960;2023-04-26T08:40:40;98242.59;;;9.35;42.53
15884;BME280;8040;50.254;10.960;2023-04-26T08:43:10;98347.03;;;10.20;41.76
15884;BME280;8040;50.254;10.960;2023-04-26T08:45:37;98324.63;;;10.15;41.30
15884;BME280;8040;50.254;10.960;2023-04-26T08:48:05;98276.94;;;9.95;41.05
15884;BME280;8040;50.254;10.960;2023-04-26T08:50:37;98238.50;;;9.75;39.89
15884;BME280;8040;50.254;10.960;2023-04-26T08:53:06;98273.25;;;9.86;38.98
15884;BME280;8040;50.254;10.960;2023-04-26T08:55:36;98309.84;;;10.07;39.62
15884;BME280;8040;50.254;10.960;2023-04-26T08:58:02;98287.06;;;9.90;39.58
15884;BME280;8040;50.254;10.960;2023-04-26T09:00:29;98307.41;;;10.06;39.56
15884;BME280;8040;50.254;10.960;2023-04-26T09:02:55;98306.31;;;10.07;38.79
15884;BME280;8040;50.254;10.960;2023-04-26T09:05:21;98318.59;;;10.18;37.54
15884;BME280;8040;50.254;10.960;2023-04-26T09:07:55;98285.22;;;10.04;37.55
15884;BME280;8040;50.254;10.960;2023-04-26T09:10:21;98299.13;;;10.48;38.19
15884;BME280;8040;50.254;10.960;2023-04-26T09:12:51;98256.66;;;10.57;37.65
15884;BME280;8040;50.254;10.960;2023-04-26T09:15:17;98296.34;;;11.12;36.64
15884;BME280;8040;50.254;10.960;2023-04-26T09:17:44;98295.41;;;11.30;37.33
15884;BME280;8040;50.254;10.960;2023-04-26T09:20:20;98328.81;;;11.44;35.64
15884;BME280;8040;50.254;10.960;2023-04-26T09:22:47;98294.22;;;11.09;35.96
15884;BME280;8040;50.254;10.960;2023-04-26T09:25:17;98326.56;;;11.32;36.31
15884;BME280;8040;50.254;10.960;2023-04-26T09:27:44;98258.63;;;10.97;35.64
15884;BME280;8040;50.254;10.960;2023-04-26T09:30:13;98329.09;;;11.56;35.66
15884;BME280;8040;50.254;10.960;2023-04-26T09:32:52;98326.81;;;11.22;34.41
15884;BME280;8040;50.254;10.960;2023-04-26T09:35:24;98265.41;;;10.54;35.79
15884;BME280;8040;50.254;10.960;2023-04-26T09:38:16;98345.22;;;10.80;36.56
15884;BME280;8040;50.254;10.960;2023-04-26T09:40:43;98346.22;;;10.70;37.64
15884;BME280;8040;50.254;10.960;2023-04-26T09:43:13;98337.59;;;10.50;37.33
15884;BME280;8040;50.254;10.960;2023-04-26T09:50:48;98301.94;;;10.43;37.06
15884;BME280;8040;50.254;10.960;2023-04-26T09:53:47;98267.63;;;10.01;37.36
15884;BME280;8040;50.254;10.960;2023-04-26T09:56:18;98246.03;;;9.96;38.01
15884;BME280;8040;50.254;10.960;2023-04-26T10:01:16;98347.75;;;10.44;38.11
15884;BME280;8040;50.254;10.960;2023-04-26T10:03:42;98313.13;;;10.23;37.25
15884;BME280;8040;50.254;10.960;2023-04-26T10:06:08;98264.41;;;9.81;36.26
15884;BME280;8040;50.254;10.960;2023-04-26T10:08:34;98255.84;;;9.92;35.96
15884;BME280;8040;50.254;10.960;2023-04-26T10:11:02;98321.47;;;10.26;35.96
15884;BME280;8040;50.254;10.960;2023-04-26T10:13:30;98291.44;;;10.23;36.93
15884;BME280;8040;50.254;10.960;2023-04-26T10:15:58;98272.53;;;10.18;37.44
15884;BME280;8040;50.254;10.960;2023-04-26T10:18:24;98295.50;;;10.39;36.95
15884;BME280;8040;50.254;10.960;2023-04-26T10:20:51;98265.56;;;10.30;37.26
15884;BME280;8040;50.254;10.960;2023-04-26T10:23:20;98338.06;;;10.70;35.99
15884;BME280;8040;50.254;10.960;2023-04-26T10:25:47;98264.53;;;10.26;35.89
15884;BME280;8040;50.254;10.960;2023-04-26T10:28:13;98255.34;;;10.41;37.06
15884;BME280;8040;50.254;10.960;2023-04-26T10:30:58;98259.22;;;10.80;35.95
15884;BME280;8040;50.254;10.960;2023-04-26T10:33:25;98249.66;;;10.96;35.28
15884;BME280;8040;50.254;10.960;2023-04-26T10:36:02;98240.91;;;10.59;34.47
15884;BME280;8040;50.254;10.960;2023-04-26T10:38:29;98228.78;;;10.70;35.17
15884;BME280;8040;50.254;10.960;2023-04-26T10:40:55;98224.09;;;10.57;34.70
15884;BME280;8040;50.254;10.960;2023-04-26T10:43:40;98234.06;;;10.48;35.27
15884;BME280;8040;50.254;10.960;2023-04-26T10:46:38;98328.19;;;11.20;35.73
15884;BME280;8040;50.254;10.960;2023-04-26T10:49:15;98308.66;;;10.91;35.22
15884;BME280;8040;50.254;10.960;2023-04-26T10:52:07;98256.84;;;10.47;35.84
15884;BME280;8040;50.254;10.960;2023-04-26T10:54:52;98231.34;;;10.48;36.20
15884;BME280;8040;50.254;10.960;2023-04-26T10:57:19;98248.53;;;10.57;35.98
15884;BME280;8040;50.254;10.960;2023-04-26T11:05:38;98315.75;;;11.19;36.93
15884;BME280;8040;50.254;10.960;2023-04-26T11:10:38;98231.28;;;10.80;34.71
15884;BME280;8040;50.254;10.960;2023-04-26T11:13:03;98263.84;;;11.07;34.66
15884;BME280;8040;50.254;10.960;2023-04-26T11:15:30;98228.88;;;10.78;34.43
15884;BME280;8040;50.254;10.960;2023-04-26T11:17:55;98258.22;;;11.03;34.69
15884;BME280;8040;50.254;10.960;2023-04-26T11:20:21;98288.38;;;11.15;34.11
15884;BME280;8040;50.254;10.960;2023-04-26T11:22:47;98293.00;;;11.01;34.98
15884;BME280;8040;50.254;10.960;2023-04-26T11:25:13;98213.19;;;10.48;35.92
15884;BME280;8040;50.254;10.960;2023-04-26T11:27:42;98294.59;;;11.16;35.46
15884;BME280;8040;50.254;10.960;2023-04-26T11:30:08;98268.97;;;11.08;35.42
15884;BME280;8040;50.254;10.960;2023-04-26T11:32:34;98185.03;;;10.71;35.45
15884;BME280;8040;50.254;10.960;2023-04-26T11:34:59;98253.50;;;11.22;34.58
15884;BME280;8040;50.254;10.960;2023-04-26T11:37:25;98228.03;;;11.18;34.23
15884;BME280;8040;50.254;10.960;2023-04-26T11:39:51;98226.00;;;11.24;35.62
15884;BME280;8040;50.254;10.960;2023-04-26T11:42:16;98273.34;;;11.72;35.23
15884;BME280;8040;50.254;10.960;2023-04-26T11:44:42;98270.22;;;11.78;34.25
15884;BME280;8040;50.254;10.960;2023-04-26T11:47:07;98215.41;;;11.63;34.91
15884;BME280;8040;50.254;10.960;2023-04-26T11:49:42;98219.25;;;11.62;33.94
15884;BME280;8040;50.254;10.960;2023-04-26T11:52:07;98249.47;;;11.82;34.15
15884;BME280;8040;50.254;10.960;2023-04-26T11:54:36;98205.66;;;11.62;34.23
15884;BME280;8040;50.254;10.960;2023-04-26T11:57:14;98249.41;;;11.96;36.07
15884;BME280;8040;50.254;10.960;2023-04-26T11:59:40;98218.69;;;11.73;33.14
15884;BME280;8040;50.254;10.960;2023-04-26T12:02:13;98277.72;;;12.17;33.38
15884;BME280;8040;50.254;10.960;2023-04-26T12:04:39;98241.13;;;12.01;33.04
15884;BME280;8040;50.254;10.960;2023-04-26T12:07:05;98276.88;;;12.30;32.97
15884;BME280;8040;50.254;10.960;2023-04-26T12:09:34;98173.72;;;11.67;32.72
15884;BME280;8040;50.254;10.960;2023-04-26T12:12:00;98214.94;;;12.05;32.81
15884;BME280;8040;50.254;10.960;2023-04-26T12:14:37;98216.13;;;12.12;33.16
15884;BME280;8040;50.254;10.960;2023-04-26T12:17:04;98194.03;;;12.14;33.07
15884;BME280;8040;50.254;10.960;2023-04-26T12:19:33;98261.50;;;12.56;33.26
15884;BME280;8040;50.254;10.960;2023-04-26T12:22:01;98238.91;;;12.47;33.07
15884;BME280;8040;50.254;10.960;2023-04-26T12:24:28;98267.69;;;12.78;33.55
15884;BME280;8040;50.254;10.960;2023-04-26T12:26:54;98219.38;;;12.53;32.25
15884;BME280;8040;50.254;10.960;2023-04-26T12:29:20;98228.63;;;12.74;32.13
15884;BME280;8040;50.254;10.960;2023-04-26T12:31:46;98254.31;;;12.90;31.67
15884;BME280;8040;50.254;10.960;2023-04-26T12:34:11;98223.06;;;12.49;31.83
15884;BME280;8040;50.254;10.960;2023-04-26T12:36:39;98278.06;;;12.68;32.14
15884;BME280;8040;50.254;10.960;2023-04-26T12:39:05;98163.41;;;12.00;32.43
15884;BME280;8040;50.254;10.960;2023-04-26T12:41:32;98224.00;;;12.44;33.20
15884;BME280;8040;50.254;10.960;2023-04-26T12:44:03;98231.16;;;12.18;31.94
15884;BME280;8040;50.254;10.960;2023-04-26T12:46:30;98203.53;;;11.94;31.72
15884;BME280;8040;50.254;10.960;2023-04-26T12:48:55;98269.78;;;12.51;32.49
15884;BME280;8040;50.254;10.960;2023-04-26T12:51:21;98166.19;;;12.08;32.98
15884;BME280;8040;50.254;10.960;2023-04-26T12:53:46;98186.22;;;12.43;31.87
15884;BME280;8040;50.254;10.960;2023-04-26T12:56:12;98276.84;;;13.04;32.39
15884;BME280;8040;50.254;10.960;2023-04-26T12:58:39;98246.72;;;13.09;32.05
15884;BME280;8040;50.254;10.960;2023-04-26T13:01:04;98225.41;;;13.03;30.69
15884;BME280;8040;50.254;10.960;2023-04-26T13:03:30;98259.81;;;13.38;30.43
15884;BME280;8040;50.254;10.960;2023-04-26T13:05:55;98235.22;;;13.21;30.21
15884;BME280;8040;50.254;10.960;2023-04-26T13:08:33;98253.59;;;12.98;30.22
15884;BME280;8040;50.254;10.960;2023-04-26T13:10:58;98189.38;;;12.36;30.86
15884;BME280;8040;50.254;10.960;2023-04-26T13:13:24;98241.44;;;12.74;31.18
15884;BME280;8040;50.254;10.960;2023-04-26T13:15:50;98191.31;;;12.36;31.34
15884;BME280;8040;50.254;10.960;2023-04-26T13:18:15;98213.78;;;12.50;31.70
15884;BME280;8040;50.254;10.960;2023-04-26T13:20:42;98227.16;;;12.68;31.02
15884;BME280;8040;50.254;10.960;2023-04-26T13:23:08;98240.47;;;12.78;30.23
15884;BME280;8040;50.254;10.960;2023-04-26T13:25:35;98204.50;;;12.51;31.06